Aviation Digital Data Service (ADDS)

Output produced by METARs form (1158 UTC 25 June 2018)
found at http://www.aviationweather.gov/adds/metars/
 
TAF TXKF 251132Z 2512/2612 21013KT 9999 FEW016 
     BECMG 2609/2612 26015KT VCSH FEW016 BKN025